Time;durP1;ratioP1;P1;durP2;ratioP2;P2;SDS_P1;SDS_P2;PMS_P1;PMS_P2;Temp;Humidity;BMP_temperature;BMP_pressure;BME280_temperature;BME280_humidity;BME280_pressure;Samples;Min_cycle;Max_cycle;Signal;HPM_P1;HPM_P2
2022/03/08 00:02:18;;;;;;;12.25;7.93;;;;;;;-0.19;60.26;102160.50;4988316;28;20081;-90
2022/03/08 00:04:44;;;;;;;13.25;8.77;;;;;;;-0.17;59.94;102171.84;4990512;28;20042;-90
2022/03/08 00:07:09;;;;;;;13.40;8.48;;;;;;;-0.24;60.30;102156.94;4982646;28;20061;-91
2022/03/08 00:09:35;;;;;;;11.02;7.70;;;;;;;-0.25;60.66;102157.81;4990680;28;20125;-91
2022/03/08 00:12:00;;;;;;;12.93;8.35;;;;;;;-0.30;60.48;102160.31;4989373;28;20680;-90
2022/03/08 00:14:26;;;;;;;11.27;8.07;;;;;;;-0.29;60.43;102162.09;4997421;28;20102;-88
2022/03/08 00:16:51;;;;;;;10.77;7.55;;;;;;;-0.32;60.24;102148.09;4980940;28;20105;-90
2022/03/08 00:19:16;;;;;;;11.52;7.90;;;;;;;-0.30;60.09;102148.97;4989728;28;20026;-90
2022/03/08 00:21:42;;;;;;;12.68;7.90;;;;;;;-0.24;59.84;102149.09;4985947;28;20089;-90
2022/03/08 00:24:08;;;;;;;11.00;7.75;;;;;;;-0.27;59.89;102149.03;4991048;28;20031;-89
2022/03/08 00:26:33;;;;;;;11.30;8.25;;;;;;;-0.30;60.02;102149.84;4977979;28;20030;-91
2022/03/08 00:28:59;;;;;;;13.10;7.68;;;;;;;-0.35;60.17;102153.28;4986446;28;20031;-91
2022/03/08 00:31:24;;;;;;;15.32;8.10;;;;;;;-0.37;59.81;102152.38;4975648;28;20116;-90
2022/03/08 00:33:50;;;;;;;11.75;7.28;;;;;;;-0.35;59.97;102162.00;4990310;28;20040;-90
2022/03/08 00:36:15;;;;;;;10.35;7.75;;;;;;;-0.35;59.39;102158.50;4987861;28;20668;-90
2022/03/08 00:38:40;;;;;;;9.60;7.28;;;;;;;-0.40;59.96;102142.75;4990972;28;20045;-90
2022/03/08 00:41:06;;;;;;;11.75;7.60;;;;;;;-0.40;59.59;102147.09;4986223;28;20069;-91
2022/03/08 00:43:31;;;;;;;9.95;6.97;;;;;;;-0.36;59.71;102152.41;4992187;28;20081;-90
2022/03/08 00:45:56;;;;;;;9.35;7.20;;;;;;;-0.36;59.39;102144.53;4989873;28;20392;-91
2022/03/08 00:48:22;;;;;;;10.00;7.15;;;;;;;-0.40;59.23;102152.34;4990087;28;20116;-91
2022/03/08 00:50:47;;;;;;;11.38;7.40;;;;;;;-0.45;59.72;102141.81;4990075;28;20034;-90
2022/03/08 00:53:13;;;;;;;9.57;7.05;;;;;;;-0.57;59.23;102134.63;4987878;28;20038;-90
2022/03/08 00:55:39;;;;;;;10.13;7.35;;;;;;;-0.56;59.82;102131.16;4986680;28;20040;-90
2022/03/08 00:58:06;;;;;;;11.23;7.40;;;;;;;-0.54;59.27;102139.06;4989805;28;20189;-91
2022/03/08 01:00:34;;;;;;;10.18;7.60;;;;;;;-0.53;59.68;102140.81;4988738;28;20396;-90
2022/03/08 01:02:59;;;;;;;11.00;7.03;;;;;;;-0.57;59.46;102142.47;4988420;28;20030;-90
2022/03/08 01:05:25;;;;;;;12.13;7.43;;;;;;;-0.59;59.81;102149.41;4983558;28;20039;-90
2022/03/08 01:07:51;;;;;;;11.98;7.63;;;;;;;-0.62;59.65;102152.00;4989983;28;20030;-91
2022/03/08 01:10:19;;;;;;;12.20;7.20;;;;;;;-0.60;59.72;102149.41;4989974;28;20261;-92
2022/03/08 01:12:45;;;;;;;10.82;6.72;;;;;;;-0.69;59.89;102144.03;4989124;28;20073;-91
2022/03/08 01:15:12;;;;;;;11.13;7.43;;;;;;;-0.67;59.83;102150.16;4988662;28;20368;-90
2022/03/08 01:17:38;;;;;;;11.85;7.80;;;;;;;-0.74;59.83;102137.84;4989739;28;20030;-91
2022/03/08 01:20:06;;;;;;;10.55;7.28;;;;;;;-0.75;59.64;102134.38;4977859;28;20110;-90
2022/03/08 01:22:32;;;;;;;8.35;6.97;;;;;;;-0.74;59.53;102138.72;4978391;28;20500;-90
2022/03/08 01:24:57;;;;;;;11.70;7.00;;;;;;;-0.75;59.72;102139.59;4975029;28;20085;-92
2022/03/08 01:27:22;;;;;;;11.15;7.65;;;;;;;-0.74;60.01;102141.34;4979376;28;20057;-91
2022/03/08 01:29:48;;;;;;;11.38;7.32;;;;;;;-0.79;60.03;102141.28;4977936;28;20077;-91
2022/03/08 01:32:13;;;;;;;10.65;7.40;;;;;;;-0.81;59.77;102139.47;4987212;28;20427;-91
2022/03/08 01:34:38;;;;;;;10.20;7.32;;;;;;;-0.86;60.47;102131.56;4988152;28;20112;-91
2022/03/08 01:37:04;;;;;;;10.75;6.55;;;;;;;-0.83;60.55;102135.97;4987345;28;20035;-91
2022/03/08 01:39:29;;;;;;;12.10;7.68;;;;;;;-0.87;60.65;102128.94;4989230;28;20030;-91
2022/03/08 01:41:55;;;;;;;11.93;7.55;;;;;;;-0.93;60.37;102114.00;4982969;28;20034;-91
2022/03/08 01:44:20;;;;;;;9.85;6.93;;;;;;;-0.88;60.01;102129.75;4985147;28;20038;-91
2022/03/08 01:46:46;;;;;;;10.40;7.75;;;;;;;-0.89;60.46;102122.78;4984936;28;20117;-90
2022/03/08 01:49:12;;;;;;;9.73;6.90;;;;;;;-0.95;60.50;102110.50;4980846;28;20030;-91
2022/03/08 01:51:39;;;;;;;9.80;7.32;;;;;;;-0.95;60.22;102109.63;4989119;28;20133;-89
2022/03/08 01:54:06;;;;;;;10.02;6.90;;;;;;;-0.95;60.23;102112.25;4989580;28;20030;-90
2022/03/08 01:56:31;;;;;;;10.05;6.75;;;;;;;-1.03;60.35;102091.19;4989102;28;20061;-91
2022/03/08 01:58:56;;;;;;;10.45;6.88;;;;;;;-0.94;59.98;102106.16;4991221;28;20098;-89
2022/03/08 02:01:22;;;;;;;11.15;7.22;;;;;;;-0.93;60.31;102105.28;4990260;28;20379;-90
2022/03/08 02:03:47;;;;;;;9.45;7.03;;;;;;;-0.93;59.97;102106.16;4978861;28;20070;-90
2022/03/08 02:06:13;;;;;;;8.75;7.13;;;;;;;-0.94;59.92;102108.75;4986827;28;20034;-90
2022/03/08 02:08:38;;;;;;;10.63;6.90;;;;;;;-1.01;60.33;102097.31;4986240;28;20476;-90
2022/03/08 02:11:03;;;;;;;9.30;6.88;;;;;;;-1.07;60.21;102090.25;4975893;28;20031;-90
2022/03/08 02:13:28;;;;;;;9.77;7.13;;;;;;;-1.01;60.29;102095.56;4989578;28;20589;-90
2022/03/08 02:15:54;;;;;;;9.73;6.68;;;;;;;-1.04;60.67;102092.06;4985367;28;20034;-90
2022/03/08 02:18:20;;;;;;;10.93;7.07;;;;;;;-1.10;60.61;102081.50;4990798;28;20041;-89
2022/03/08 02:20:46;;;;;;;11.85;7.18;;;;;;;-1.08;60.49;102085.91;4992136;28;20132;-89
2022/03/08 02:23:11;;;;;;;10.10;7.45;;;;;;;-1.08;60.90;102085.03;4991778;28;20031;-88
2022/03/08 02:25:36;;;;;;;9.32;7.10;;;;;;;-1.06;60.33;102086.78;4982128;28;20669;-89
2022/03/08 02:28:02;;;;;;;10.77;7.35;;;;;;;-1.06;60.37;102081.56;4989524;28;20484;-89
2022/03/08 02:30:27;;;;;;;12.45;8.25;;;;;;;-1.10;60.69;102079.75;4992107;28;20045;-88
2022/03/08 02:32:54;;;;;;;11.10;7.30;;;;;;;-1.14;60.34;102072.72;4991606;28;20034;-90
2022/03/08 02:35:22;;;;;;;11.32;6.90;;;;;;;-1.16;60.94;102073.56;4988378;28;20030;-88
2022/03/08 02:38:09;;;;;;;10.23;7.50;;;;;;;-1.16;61.22;102070.94;4987530;28;20034;-90
2022/03/08 02:40:37;;;;;;;10.45;7.15;;;;;;;-1.20;60.85;102062.19;4991373;28;20045;-89
2022/03/08 02:43:05;;;;;;;12.25;7.47;;;;;;;-1.22;60.78;102056.03;4978501;28;20406;-89
2022/03/08 02:45:30;;;;;;;9.15;7.45;;;;;;;-1.19;60.74;102068.28;4984036;28;20399;-89
2022/03/08 02:47:56;;;;;;;11.43;7.22;;;;;;;-1.24;60.95;102062.97;4988350;28;20030;-89
2022/03/08 02:50:22;;;;;;;9.85;6.88;;;;;;;-1.31;61.52;102059.38;4991322;28;20089;-90
2022/03/08 02:52:51;;;;;;;10.57;7.35;;;;;;;-1.29;60.99;102062.03;4987180;28;20109;-90
2022/03/08 02:55:18;;;;;;;9.45;7.07;;;;;;;-1.29;61.57;102054.19;4982349;28;20030;-91
2022/03/08 02:57:44;;;;;;;10.10;7.72;;;;;;;-1.37;61.76;102045.34;4986022;28;20054;-90
2022/03/08 03:00:12;;;;;;;12.40;8.13;;;;;;;-1.44;61.97;102030.41;4986576;28;20452;-91
2022/03/08 03:02:37;;;;;;;13.20;7.13;;;;;;;-1.42;61.97;102042.66;4990517;28;20132;-91
2022/03/08 03:05:03;;;;;;;9.18;7.40;;;;;;;-1.41;62.04;102036.56;4991065;28;20114;-90
2022/03/08 03:07:29;;;;;;;11.43;8.02;;;;;;;-1.44;62.09;102028.66;4988755;28;20046;-90
2022/03/08 03:09:54;;;;;;;11.60;7.75;;;;;;;-1.51;61.91;102016.34;4990281;28;20030;-89
2022/03/08 03:12:20;;;;;;;10.98;7.72;;;;;;;-1.43;61.98;102027.81;4991762;28;20050;-91
2022/03/08 03:14:45;;;;;;;10.07;7.22;;;;;;;-1.45;62.47;102018.22;4986254;28;20041;-90
2022/03/08 03:17:10;;;;;;;11.05;7.85;;;;;;;-1.49;62.20;102009.44;4990495;28;20035;-90
2022/03/08 03:19:36;;;;;;;10.40;7.28;;;;;;;-1.47;62.22;102010.34;4991260;28;20384;-89
2022/03/08 03:22:03;;;;;;;11.15;7.32;;;;;;;-1.42;62.38;102007.78;4991225;28;20102;-91
2022/03/08 03:24:28;;;;;;;12.68;7.90;;;;;;;-1.42;62.29;102007.78;4987734;28;20038;-90
2022/03/08 03:26:53;;;;;;;8.82;7.32;;;;;;;-1.43;62.40;102008.66;4989951;28;20428;-91
2022/03/08 03:29:19;;;;;;;12.50;7.68;;;;;;;-1.49;61.91;102004.22;4987176;28;20035;-90
2022/03/08 03:31:44;;;;;;;11.88;7.68;;;;;;;-1.55;62.33;101998.88;4990156;28;20095;-90
2022/03/08 03:34:09;;;;;;;11.73;7.35;;;;;;;-1.54;62.35;101996.31;4987030;28;20042;-90
2022/03/08 03:36:35;;;;;;;11.23;7.72;;;;;;;-1.46;62.59;102000.75;4976530;28;20026;-90
2022/03/08 03:39:03;;;;;;;10.25;7.38;;;;;;;-1.51;62.12;101996.34;4989273;28;20336;-90
2022/03/08 03:41:28;;;;;;;11.02;7.40;;;;;;;-1.54;62.28;101991.09;4989901;28;20582;-90
2022/03/08 03:43:53;;;;;;;10.13;7.43;;;;;;;-1.53;62.90;101990.22;4989342;28;20117;-90
2022/03/08 03:46:19;;;;;;;12.57;7.38;;;;;;;-1.52;62.33;101989.38;4990622;28;20061;-91
2022/03/08 03:48:44;;;;;;;10.68;7.40;;;;;;;-1.58;62.37;101991.88;4989892;28;20105;-90
2022/03/08 03:51:10;;;;;;;10.50;7.70;;;;;;;-1.56;62.09;102005.84;4990723;28;20022;-90
2022/03/08 03:53:36;;;;;;;12.25;7.40;;;;;;;-1.60;62.70;102003.16;4988755;28;20265;-91
2022/03/08 03:56:02;;;;;;;12.13;7.78;;;;;;;-1.70;62.74;101998.63;4982967;28;20512;-90
2022/03/08 03:58:27;;;;;;;12.57;8.20;;;;;;;-1.74;63.21;102009.88;4990131;28;20439;-91
2022/03/08 04:00:52;;;;;;;12.55;8.38;;;;;;;-1.77;63.57;102006.34;4988659;28;20479;-89
2022/03/08 04:03:19;;;;;;;13.45;8.27;;;;;;;-1.80;62.79;102003.69;4989180;28;20105;-89
2022/03/08 04:05:44;;;;;;;15.38;8.20;;;;;;;-1.82;63.30;102007.97;4984627;28;20037;-90
2022/03/08 04:08:09;;;;;;;12.10;7.85;;;;;;;-1.84;63.50;102003.56;4987982;28;20038;-90
2022/03/08 04:10:35;;;;;;;11.10;7.95;;;;;;;-1.87;63.63;101999.19;4990286;28;20038;-89
2022/03/08 04:13:00;;;;;;;13.18;7.97;;;;;;;-1.94;63.62;101986.00;4989480;28;20039;-90
2022/03/08 04:15:26;;;;;;;12.75;8.52;;;;;;;-1.95;64.47;101994.69;4973396;28;20046;-90
2022/03/08 04:17:51;;;;;;;12.00;7.95;;;;;;;-1.91;63.83;101996.50;4987973;28;20018;-90
2022/03/08 04:20:16;;;;;;;12.50;7.65;;;;;;;-1.97;64.31;101978.97;4989967;28;20034;-89
2022/03/08 04:22:42;;;;;;;11.57;8.27;;;;;;;-2.01;64.04;101980.69;4984068;28;20038;-90
2022/03/08 04:25:08;;;;;;;11.52;8.63;;;;;;;-1.95;64.71;101994.69;4981431;28;20121;-89
2022/03/08 04:27:33;;;;;;;10.88;8.00;;;;;;;-1.97;64.62;101992.03;4983287;28;20240;-90
2022/03/08 04:29:59;;;;;;;13.27;8.68;;;;;;;-1.99;64.41;101988.53;4989728;28;20034;-90
2022/03/08 04:32:24;;;;;;;11.90;8.15;;;;;;;-2.04;64.37;101982.34;4975130;28;20377;-90
2022/03/08 04:34:49;;;;;;;15.25;8.60;;;;;;;-2.05;65.14;101989.31;4976244;28;20031;-89
2022/03/08 04:37:15;;;;;;;11.48;8.18;;;;;;;-2.04;64.63;101988.44;4976865;28;20023;-89
2022/03/08 04:39:40;;;;;;;11.52;7.72;;;;;;;-2.09;65.00;101981.34;4983514;28;20082;-91
2022/03/08 04:42:05;;;;;;;10.52;7.90;;;;;;;-2.08;65.07;101994.44;4982445;28;20018;-91
2022/03/08 04:44:31;;;;;;;11.40;8.60;;;;;;;-2.12;64.92;101994.38;4983459;28;20046;-90
2022/03/08 04:46:56;;;;;;;11.40;8.73;;;;;;;-2.20;65.08;101981.16;4989276;28;20034;-91
2022/03/08 04:49:30;;;;;;;13.30;9.13;;;;;;;-2.22;65.30;101979.38;4987449;28;20441;-90
2022/03/08 04:51:55;;;;;;;11.93;7.95;;;;;;;-2.27;65.85;101980.16;4981911;28;20027;-89
2022/03/08 04:54:20;;;;;;;13.93;8.70;;;;;;;-2.20;65.65;101991.59;4983110;28;20030;-91
2022/03/08 04:56:46;;;;;;;11.05;8.65;;;;;;;-2.20;65.78;101982.91;4989953;28;20031;-90
2022/03/08 04:59:11;;;;;;;12.18;8.45;;;;;;;-2.16;65.41;101980.38;4972760;28;20026;-89
2022/03/08 05:01:36;;;;;;;11.55;8.25;;;;;;;-2.17;65.81;101978.63;4975048;28;20038;-89
2022/03/08 05:04:02;;;;;;;12.23;8.68;;;;;;;-2.16;65.39;101980.38;4985049;28;20069;-90
2022/03/08 05:06:30;;;;;;;11.52;8.15;;;;;;;-2.18;65.57;101987.28;4990039;28;20558;-90
2022/03/08 05:08:55;;;;;;;14.75;8.18;;;;;;;-2.24;65.88;101989.78;4988659;28;20029;-89
2022/03/08 05:11:20;;;;;;;12.48;8.15;;;;;;;-2.30;66.08;101969.69;4989439;28;20031;-90
2022/03/08 05:13:46;;;;;;;11.43;8.45;;;;;;;-2.29;66.23;101978.38;4986348;28;20030;-89
2022/03/08 05:16:11;;;;;;;13.95;8.48;;;;;;;-2.27;66.26;101976.66;4973656;28;20019;-90
2022/03/08 05:18:36;;;;;;;11.43;8.18;;;;;;;-2.30;66.01;101974.91;4987288;28;20027;-89
2022/03/08 05:21:01;;;;;;;11.35;8.50;;;;;;;-2.33;66.36;101971.34;4988795;28;20030;-90
2022/03/08 05:23:27;;;;;;;11.68;8.60;;;;;;;-2.29;66.45;101974.03;4984222;28;20034;-89
2022/03/08 05:25:52;;;;;;;14.75;9.15;;;;;;;-2.32;66.60;101966.16;4985715;28;20036;-90
2022/03/08 05:28:17;;;;;;;12.73;8.63;;;;;;;-2.27;66.08;101971.47;4985879;28;20070;-89
2022/03/08 05:30:44;;;;;;;13.70;8.52;;;;;;;-2.26;65.90;101973.22;4988206;28;20041;-90
2022/03/08 05:33:09;;;;;;;11.68;8.27;;;;;;;-2.29;66.04;101968.81;4985992;28;20492;-89
2022/03/08 05:35:34;;;;;;;14.18;8.55;;;;;;;-2.30;66.10;101967.06;4988126;28;20085;-89
2022/03/08 05:38:01;;;;;;;12.73;9.05;;;;;;;-2.34;66.49;101975.69;4986012;28;20030;-90
2022/03/08 05:40:26;;;;;;;12.40;8.52;;;;;;;-2.31;66.47;101975.72;4987203;28;20066;-90
2022/03/08 05:42:51;;;;;;;12.98;8.23;;;;;;;-2.34;66.53;101974.78;4985678;28;20529;-91
2022/03/08 05:45:17;;;;;;;10.00;7.88;;;;;;;-2.46;66.73;101953.72;4987593;28;20034;-90
2022/03/08 05:47:42;;;;;;;11.77;8.18;;;;;;;-2.37;66.70;101969.53;4987229;28;20034;-89
2022/03/08 05:50:10;;;;;;;13.02;8.13;;;;;;;-2.38;67.08;101972.97;4987140;28;20402;-90
2022/03/08 05:52:35;;;;;;;13.05;8.32;;;;;;;-2.44;66.63;101965.91;4989826;28;20057;-88
2022/03/08 05:55:01;;;;;;;12.40;8.52;;;;;;;-2.33;66.74;101973.97;4992275;28;20030;-89
2022/03/08 05:57:26;;;;;;;12.73;9.13;;;;;;;-2.31;66.38;101975.72;4993418;28;20480;-88
2022/03/08 05:59:52;;;;;;;13.88;8.50;;;;;;;-2.25;66.06;101982.81;4995917;28;20058;-91
2022/03/08 06:02:18;;;;;;;12.85;8.45;;;;;;;-2.23;66.21;101973.28;4990905;28;20030;-90
2022/03/08 06:04:44;;;;;;;12.27;8.13;;;;;;;-2.21;65.92;101963.78;4990546;28;20093;-90
2022/03/08 06:07:09;;;;;;;12.25;7.93;;;;;;;-2.11;65.89;101973.50;4985106;28;20063;-88
2022/03/08 06:09:35;;;;;;;12.15;8.05;;;;;;;-2.16;66.05;101963.84;4976616;28;20105;-89
2022/03/08 06:12:00;;;;;;;13.60;8.10;;;;;;;-2.13;65.96;101974.31;4983126;28;20130;-88
2022/03/08 06:14:27;;;;;;;11.52;8.27;;;;;;;-2.16;66.28;101974.28;4993103;28;20065;-90
2022/03/08 06:16:52;;;;;;;14.32;8.48;;;;;;;-2.15;66.15;101970.81;4990472;28;20034;-90
2022/03/08 06:19:17;;;;;;;11.00;7.88;;;;;;;-2.15;66.03;101971.69;4992064;28;20038;-89
2022/03/08 06:21:42;;;;;;;11.35;8.80;;;;;;;-2.18;66.55;101970.75;4991062;28;20392;-90
2022/03/08 06:24:08;;;;;;;12.18;7.63;;;;;;;-2.22;66.11;101963.72;4987787;28;20482;-90
2022/03/08 06:26:33;;;;;;;13.93;9.25;;;;;;;-2.20;66.21;101967.25;4987054;28;20019;-88
2022/03/08 06:28:59;;;;;;;14.05;8.20;;;;;;;-2.15;66.50;101971.69;4989819;28;20160;-88
2022/03/08 06:31:24;;;;;;;12.50;9.43;;;;;;;-2.15;65.91;101966.47;4981760;28;20038;-90
2022/03/08 06:33:49;;;;;;;13.55;9.18;;;;;;;-2.12;66.17;101973.50;4989470;28;20030;-90
2022/03/08 06:36:15;;;;;;;10.90;8.35;;;;;;;-2.09;65.79;101971.84;4988605;28;20030;-88
2022/03/08 06:38:40;;;;;;;10.98;8.27;;;;;;;-2.12;66.17;101963.06;4979326;28;20035;-88
2022/03/08 06:41:05;;;;;;;11.30;8.25;;;;;;;-2.15;65.83;101948.22;4989280;28;20026;-88
2022/03/08 06:43:30;;;;;;;13.70;8.38;;;;;;;-2.02;65.71;101962.38;4990220;28;20027;-88
2022/03/08 06:45:56;;;;;;;12.98;8.93;;;;;;;-1.91;65.57;101970.41;4991003;28;20404;-89
2022/03/08 06:48:21;;;;;;;11.45;8.18;;;;;;;-1.83;65.22;101968.81;4986331;28;20026;-89
2022/03/08 06:50:46;;;;;;;10.85;7.95;;;;;;;-1.73;64.96;101955.06;4981546;28;20491;-89
2022/03/08 06:53:12;;;;;;;13.60;8.75;;;;;;;-1.41;64.52;101954.75;4983720;28;20072;-89
2022/03/08 06:55:37;;;;;;;12.45;8.30;;;;;;;-1.15;63.52;101961.22;4991064;28;20243;-90
2022/03/08 06:58:03;;;;;;;11.25;7.70;;;;;;;-0.92;62.52;101953.75;4981547;28;20046;-89
2022/03/08 07:00:29;;;;;;;11.20;7.93;;;;;;;-0.85;61.93;101960.78;4984082;28;20038;-89
2022/03/08 07:02:55;;;;;;;9.50;8.02;;;;;;;-0.84;61.25;101962.53;4982814;28;20094;-88
2022/03/08 07:05:20;;;;;;;12.40;8.52;;;;;;;-0.93;61.61;101957.19;4979688;28;20026;-88
2022/03/08 07:07:45;;;;;;;12.07;8.38;;;;;;;-0.88;61.15;101962.47;4990011;28;20353;-88
2022/03/08 07:10:10;;;;;;;9.77;7.63;;;;;;;-0.90;61.30;101958.97;4983797;28;20369;-86
2022/03/08 07:12:36;;;;;;;11.90;8.90;;;;;;;-0.87;61.49;101964.25;4973849;28;20047;-87
2022/03/08 07:15:03;;;;;;;13.43;8.18;;;;;;;-0.88;61.70;101972.94;4987770;28;20166;-88
2022/03/08 07:17:28;;;;;;;9.68;7.78;;;;;;;-0.86;61.12;101964.28;4978551;28;20035;-89
2022/03/08 07:19:53;;;;;;;10.50;8.13;;;;;;;-0.82;61.24;101968.69;4985378;28;20684;-90
2022/03/08 07:22:18;;;;;;;11.95;8.18;;;;;;;-0.79;61.38;101975.69;4986289;28;20096;-89
2022/03/08 07:24:44;;;;;;;12.48;8.57;;;;;;;-0.76;61.08;101981.81;4981375;28;20026;-89
2022/03/08 07:27:09;;;;;;;13.48;8.68;;;;;;;-0.69;60.56;101981.91;4989677;28;20027;-89
2022/03/08 07:29:36;;;;;;;11.52;8.48;;;;;;;-0.73;60.46;101970.53;4985455;28;20073;-89
2022/03/08 07:32:02;;;;;;;13.32;8.43;;;;;;;-0.66;60.02;101969.78;4987283;28;20101;-89
2022/03/08 07:34:27;;;;;;;12.20;8.50;;;;;;;-0.65;60.11;101971.53;4976146;28;20053;-88
2022/03/08 07:36:53;;;;;;;11.45;8.38;;;;;;;-0.59;60.31;101962.88;4982000;28;20114;-88
2022/03/08 07:39:18;;;;;;;12.15;8.65;;;;;;;-0.52;59.17;101964.72;4974314;28;20026;-89
2022/03/08 07:41:44;;;;;;;12.15;9.35;;;;;;;-0.43;59.19;101969.19;4986878;28;20078;-88
2022/03/08 07:44:09;;;;;;;13.45;8.73;;;;;;;-0.34;58.84;101971.91;4986593;28;20085;-88
2022/03/08 07:46:34;;;;;;;14.25;9.30;;;;;;;-0.28;58.30;101964.13;4988872;28;20034;-91
2022/03/08 07:49:00;;;;;;;11.73;7.95;;;;;;;-0.13;57.57;101973.88;4986061;28;20049;-88
2022/03/08 07:51:25;;;;;;;10.02;8.02;;;;;;;-0.05;57.17;101961.75;4983498;28;20034;-88
2022/03/08 07:53:51;;;;;;;10.93;8.60;;;;;;;0.04;57.03;101960.97;4983818;28;20026;-89
2022/03/08 07:56:16;;;;;;;13.10;8.70;;;;;;;0.09;57.05;101960.19;4984792;28;20092;-92
2022/03/08 07:58:42;;;;;;;10.63;8.40;;;;;;;0.16;56.58;101969.84;4989412;28;20046;-91
2022/03/08 08:01:07;;;;;;;13.25;8.70;;;;;;;0.27;56.36;101969.06;4990082;28;20136;-91
2022/03/08 08:03:33;;;;;;;13.85;8.20;;;;;;;0.35;55.89;101968.28;4982728;28;20045;-89
2022/03/08 08:05:58;;;;;;;20.90;8.48;;;;;;;0.38;55.35;101973.56;4989161;28;20074;-90
2022/03/08 08:08:23;;;;;;;11.60;7.95;;;;;;;0.46;56.16;101981.47;4989018;28;20037;-89
2022/03/08 08:10:49;;;;;;;13.60;7.78;;;;;;;0.55;55.44;101980.69;4988691;28;20124;-91
2022/03/08 08:13:14;;;;;;;10.88;7.90;;;;;;;0.61;55.47;101976.34;4973713;28;20385;-90
2022/03/08 08:15:40;;;;;;;10.70;7.72;;;;;;;0.70;55.16;101971.19;4985586;28;20030;-89
2022/03/08 08:18:05;;;;;;;11.15;8.18;;;;;;;0.82;54.35;101973.03;4989027;28;20029;-88
2022/03/08 08:20:30;;;;;;;10.75;7.28;;;;;;;0.91;53.63;101980.06;4988438;28;20034;-90
2022/03/08 08:22:56;;;;;;;10.27;8.13;;;;;;;0.96;53.54;101968.78;4987155;28;20451;-88
2022/03/08 08:25:21;;;;;;;12.60;7.90;;;;;;;1.07;52.74;101965.31;4975176;28;20038;-89
2022/03/08 08:27:46;;;;;;;10.50;7.50;;;;;;;1.20;52.55;101977.63;4970392;28;20034;-88
2022/03/08 08:30:12;;;;;;;10.00;7.63;;;;;;;1.28;52.26;101970.69;4982675;28;20034;-92
2022/03/08 08:32:39;;;;;;;10.25;8.07;;;;;;;1.38;52.95;101966.38;4987641;28;20466;-89
2022/03/08 08:35:04;;;;;;;10.48;7.30;;;;;;;1.52;52.05;101974.31;4988755;28;20038;-94
2022/03/08 08:37:30;;;;;;;10.15;7.50;;;;;;;1.65;51.74;101974.38;4987209;28;20114;-91
2022/03/08 08:39:55;;;;;;;9.38;7.32;;;;;;;1.86;50.86;101983.19;4978505;28;20030;-90
2022/03/08 08:42:20;;;;;;;7.85;7.03;;;;;;;2.28;49.85;101977.16;4985391;28;20118;-88
2022/03/08 08:44:45;;;;;;;10.35;6.68;;;;;;;2.91;48.16;101964.03;4988657;28;20077;-93
2022/03/08 08:47:12;;;;;;;8.10;6.95;;;;;;;3.80;45.98;101964.59;4988988;28;20034;-87
2022/03/08 08:49:37;;;;;;;8.73;6.55;;;;;;;4.75;44.04;101956.03;4987529;28;20054;-86
2022/03/08 08:52:03;;;;;;;9.45;6.50;;;;;;;5.57;41.93;101958.72;4976578;28;20069;-89
2022/03/08 08:54:28;;;;;;;8.95;6.80;;;;;;;6.07;40.66;101959.84;4982784;28;20141;-88
2022/03/08 08:56:53;;;;;;;8.38;6.63;;;;;;;6.62;39.26;101943.09;4989053;28;20029;-87
2022/03/08 08:59:19;;;;;;;9.63;6.53;;;;;;;7.32;37.90;101957.69;4987072;28;20034;-87
2022/03/08 09:01:44;;;;;;;9.57;6.93;;;;;;;7.58;36.77;101945.69;4979268;28;20069;-87
2022/03/08 09:04:10;;;;;;;9.45;7.10;;;;;;;7.84;35.57;101945.13;4969286;28;20129;-87
2022/03/08 09:06:35;;;;;;;9.95;7.10;;;;;;;7.99;34.91;101945.69;4984534;28;20462;-88
2022/03/08 09:09:01;;;;;;;8.07;6.82;;;;;;;8.17;34.36;101946.16;4988368;28;20113;-88
2022/03/08 09:11:26;;;;;;;9.32;7.43;;;;;;;8.41;34.63;101956.22;4986040;28;20591;-87
2022/03/08 09:13:52;;;;;;;10.48;7.25;;;;;;;8.64;34.03;101941.50;4986748;28;20023;-87
2022/03/08 09:16:17;;;;;;;9.90;7.38;;;;;;;9.01;33.34;101948.53;4980444;28;20726;-88
2022/03/08 09:18:44;;;;;;;9.90;8.07;;;;;;;9.52;32.74;101958.63;4969281;28;20423;-88
2022/03/08 09:21:12;;;;;;;9.85;8.10;;;;;;;9.98;32.03;101947.47;4980488;28;20034;-88
2022/03/08 09:23:38;;;;;;;11.60;7.35;;;;;;;10.58;31.03;101934.97;4977673;28;20578;-90
2022/03/08 09:26:04;;;;;;;10.68;6.75;;;;;;;10.99;29.94;101928.19;4977054;28;20456;-93
2022/03/08 09:28:30;;;;;;;8.48;6.97;;;;;;;11.18;29.19;101925.75;4993790;28;20280;-91
2022/03/08 09:30:56;;;;;;;9.38;6.55;;;;;;;11.57;29.09;101919.88;4990059;28;20034;-93
2022/03/08 09:33:21;;;;;;;9.45;6.60;;;;;;;11.64;28.20;101926.72;4990134;28;20026;-92
2022/03/08 09:35:46;;;;;;;7.53;5.72;;;;;;;11.82;28.58;101910.00;4979648;28;20254;-91
2022/03/08 09:38:13;;;;;;;9.00;6.70;;;;;;;12.21;27.57;101922.75;4974092;28;20046;-91
2022/03/08 09:40:39;;;;;;;7.57;6.25;;;;;;;12.28;26.70;101897.50;4974720;28;20518;-91
2022/03/08 09:43:05;;;;;;;8.18;6.38;;;;;;;12.17;27.08;101919.31;4989974;28;20106;-91
2022/03/08 09:45:31;;;;;;;7.13;6.43;;;;;;;12.06;26.92;101904.66;4980192;28;20101;-92
2022/03/08 09:47:56;;;;;;;9.00;6.55;;;;;;;12.45;26.79;101904.81;4988587;28;20340;-90
2022/03/08 09:50:21;;;;;;;9.82;6.93;;;;;;;12.76;26.27;101892.84;4990649;28;20078;-92
2022/03/08 09:52:46;;;;;;;7.22;6.10;;;;;;;12.86;25.61;101895.03;4982373;28;20027;-91
2022/03/08 09:55:15;;;;;;;6.50;5.90;;;;;;;13.14;25.46;101913.41;4991692;28;20113;-91
2022/03/08 09:57:41;;;;;;;6.90;6.00;;;;;;;12.71;25.49;101898.41;4974901;28;20031;-91
2022/03/08 10:00:09;;;;;;;6.57;5.88;;;;;;;13.10;25.48;101902.94;4973532;28;20453;-91
2022/03/08 10:02:43;;;;;;;6.88;5.70;;;;;;;13.50;25.41;101891.31;4976692;28;20039;-92
2022/03/08 10:05:08;;;;;;;7.40;6.28;;;;;;;13.26;24.63;101898.66;4988521;28;20352;-91
2022/03/08 10:07:34;;;;;;;7.40;5.93;;;;;;;13.65;24.37;101897.75;4990363;28;20026;-91
2022/03/08 10:09:59;;;;;;;8.80;6.03;;;;;;;14.20;24.30;101890.59;4974122;28;20451;-92
2022/03/08 10:12:26;;;;;;;6.60;5.43;;;;;;;14.40;24.14;101886.94;4992472;28;20125;-92
2022/03/08 10:14:51;;;;;;;7.60;6.47;;;;;;;14.68;23.38;101877.53;4995802;28;20034;-92
2022/03/08 10:17:52;;;;;;;7.72;6.10;;;;;;;15.47;24.77;101893.00;4979879;28;20034;-93
2022/03/08 10:20:28;;;;;;;7.60;6.05;;;;;;;15.99;22.94;101885.63;4920150;29;20054;-93
2022/03/08 10:22:54;;;;;;;7.40;5.65;;;;;;;16.68;22.29;101874.41;4913568;29;20084;-94
2022/03/08 10:25:25;;;;;;;7.88;6.20;;;;;;;17.24;21.00;101879.13;4913750;29;20063;-92
2022/03/08 10:27:50;;;;;;;7.70;6.03;;;;;;;17.54;20.66;101882.56;4921576;29;20154;-94
2022/03/08 10:30:15;;;;;;;7.67;5.97;;;;;;;17.72;20.61;101874.25;4919603;29;20072;-93
2022/03/08 10:32:40;;;;;;;11.85;6.38;;;;;;;17.90;19.71;101873.97;4931367;29;20306;-93
2022/03/08 10:35:08;;;;;;;7.68;6.40;;;;;;;17.32;19.93;101871.44;4936410;29;20039;-94
2022/03/08 10:37:38;;;;;;;7.00;5.80;;;;;;;17.91;20.18;101864.06;4931209;29;20031;-93
2022/03/08 10:40:07;;;;;;;7.57;5.93;;;;;;;18.62;19.34;101865.59;4934051;29;20038;-94
2022/03/08 10:42:39;;;;;;;8.27;5.90;;;;;;;18.76;19.09;101868.22;4930701;29;20051;-92
2022/03/08 10:45:11;;;;;;;8.90;5.38;;;;;;;17.24;19.87;101881.81;4930529;29;20031;-92
2022/03/08 10:47:54;;;;;;;6.20;5.60;;;;;;;17.07;21.00;101861.34;4930976;29;20039;-92
2022/03/08 10:50:23;;;;;;;5.90;5.40;;;;;;;17.14;20.20;101860.88;4914719;29;20035;-91
2022/03/08 10:52:52;;;;;;;8.25;5.82;;;;;;;17.50;20.05;101882.84;4922051;29;20127;-94
2022/03/08 10:55:20;;;;;;;6.68;5.68;;;;;;;17.11;19.79;101862.88;4986152;28;20050;-93
2022/03/08 10:57:53;;;;;;;7.18;5.45;;;;;;;17.19;19.95;101860.59;4990377;28;20033;-92
2022/03/08 11:00:20;;;;;;;7.78;5.97;;;;;;;17.91;19.62;101854.16;4990424;28;20121;-93
2022/03/08 11:02:50;;;;;;;5.95;5.35;;;;;;;18.46;18.91;101852.28;4971071;28;20038;-92
2022/03/08 11:05:16;;;;;;;6.78;6.07;;;;;;;17.97;19.35;101852.88;4984845;28;20253;-93
2022/03/08 11:07:41;;;;;;;6.50;5.85;;;;;;;18.18;19.21;101864.06;4991964;28;20109;-94
2022/03/08 11:10:09;;;;;;;9.90;5.97;;;;;;;18.57;18.68;101857.81;4991310;28;20102;-94
2022/03/08 11:12:36;;;;;;;9.45;6.07;;;;;;;19.28;18.46;101856.47;4989211;28;20109;-92
2022/03/08 11:15:02;;;;;;;7.35;5.65;;;;;;;19.31;18.34;101839.19;4990974;28;20420;-92
2022/03/08 11:17:28;;;;;;;9.93;6.22;;;;;;;19.06;18.07;101846.34;4991118;28;20022;-94